createdAt,value
2023-02-04T00:00:15.124Z,18.23
2023-02-04T00:02:42.303Z,20.50
2023-02-04T00:05:12.702Z,14.13
2023-02-04T00:07:41.377Z,18.90
2023-02-04T00:10:08.980Z,17.40
2023-02-04T00:12:36.092Z,16.57
2023-02-04T00:15:02.981Z,11.63
2023-02-04T00:17:29.728Z,13.67
2023-02-04T00:19:56.539Z,19.90
2023-02-04T00:22:23.732Z,12.50
2023-02-04T00:24:50.593Z,21.30
2023-02-04T00:27:17.767Z,15.73
2023-02-04T00:29:44.665Z,14.93
2023-02-04T00:32:11.596Z,18.03
2023-02-04T00:34:38.563Z,16.10
2023-02-04T00:37:08.520Z,16.37
2023-02-04T00:39:35.280Z,17.80
2023-02-04T00:42:02.121Z,23.20
2023-02-04T00:44:28.899Z,13.93
2023-02-04T00:46:57.380Z,17.43
2023-02-04T00:49:24.401Z,13.10
2023-02-04T00:51:51.401Z,17.13
2023-02-04T00:54:18.255Z,20.13
2023-02-04T00:56:47.665Z,21.00
2023-02-04T00:59:14.637Z,19.57
2023-02-04T01:01:41.626Z,21.63
2023-02-04T01:04:08.490Z,21.47
2023-02-04T01:06:41.776Z,23.00
2023-02-04T01:09:08.739Z,25.13
2023-02-04T01:11:36.483Z,16.33
2023-02-04T01:14:03.338Z,16.37
2023-02-04T01:16:30.188Z,23.47
2023-02-04T01:18:57.040Z,23.43
2023-02-04T01:21:24.607Z,20.60
2023-02-04T01:23:54.097Z,18.97
2023-02-04T01:26:24.068Z,19.50
2023-02-04T01:28:51.429Z,15.97
2023-02-04T01:31:18.644Z,16.03
2023-02-04T01:33:45.573Z,21.37
2023-02-04T01:36:13.266Z,19.17
2023-02-04T01:38:40.035Z,17.70
2023-02-04T01:41:07.335Z,22.63
2023-02-04T01:43:37.192Z,23.93
2023-02-04T01:46:07.166Z,11.83
2023-02-04T01:48:36.931Z,18.73
2023-02-04T01:51:07.410Z,20.03
2023-02-04T01:53:35.855Z,22.30
2023-02-04T01:56:11.421Z,17.20
2023-02-04T01:58:41.751Z,29.03
2023-02-04T02:01:18.392Z,18.93
2023-02-04T02:03:45.245Z,31.63
2023-02-04T02:06:12.214Z,18.10
2023-02-04T02:08:39.288Z,16.43
2023-02-04T02:11:06.124Z,20.87
2023-02-04T02:13:32.978Z,22.17
2023-02-04T02:15:59.716Z,15.20
2023-02-04T02:18:26.556Z,19.43
2023-02-04T02:20:53.277Z,19.53
2023-02-04T02:23:46.198Z,20.67
2023-02-04T02:26:15.142Z,20.67
2023-02-04T02:28:45.243Z,25.13
2023-02-04T02:31:12.430Z,18.33
2023-02-04T02:33:39.224Z,24.07
2023-02-04T02:36:09.342Z,25.03
2023-02-04T02:38:36.611Z,23.47
2023-02-04T02:41:04.474Z,16.83
2023-02-04T02:43:31.892Z,20.93
2023-02-04T02:46:01.266Z,19.00
2023-02-04T02:48:28.119Z,21.90
2023-02-04T02:50:55.142Z,19.23
2023-02-04T02:53:22.245Z,17.33
2023-02-04T02:55:49.201Z,17.10
2023-02-04T02:58:34.519Z,24.73
2023-02-04T03:01:04.485Z,20.17
2023-02-04T03:03:34.519Z,19.47
2023-02-04T03:06:10.726Z,23.80
2023-02-04T03:08:44.965Z,18.17
2023-02-04T03:11:11.916Z,20.47
2023-02-04T03:13:39.653Z,24.93
2023-02-04T03:16:08.244Z,17.67
2023-02-04T03:18:36.674Z,21.47
2023-02-04T03:21:05.012Z,21.90
2023-02-04T03:23:33.991Z,19.73
2023-02-04T03:26:01.576Z,23.80
2023-02-04T03:28:28.476Z,22.20
2023-02-04T03:30:56.459Z,23.17
2023-02-04T03:33:31.905Z,20.80
2023-02-04T03:35:59.584Z,22.40
2023-02-04T03:38:26.839Z,23.23
2023-02-04T03:40:53.851Z,24.87
2023-02-04T03:43:20.647Z,24.47
2023-02-04T03:45:47.459Z,29.47
2023-02-04T03:48:14.329Z,23.70
2023-02-04T03:50:41.202Z,20.77
2023-02-04T03:53:08.186Z,19.53
2023-02-04T03:55:36.102Z,26.90
2023-02-04T03:58:03.988Z,30.30
2023-02-04T04:00:32.482Z,16.80
2023-02-04T04:03:00.428Z,22.87
2023-02-04T04:05:30.900Z,23.97
2023-02-04T04:07:57.927Z,17.83
2023-02-04T04:10:25.538Z,22.33
2023-02-04T04:12:52.262Z,27.73
2023-02-04T04:15:18.999Z,29.30
2023-02-04T04:17:46.009Z,23.83
2023-02-04T04:20:15.767Z,23.87
2023-02-04T04:22:42.655Z,25.80
2023-02-04T04:25:09.498Z,26.23
2023-02-04T04:27:36.292Z,18.20
2023-02-04T04:30:04.120Z,20.97
2023-02-04T04:32:30.888Z,22.70
2023-02-04T04:34:57.678Z,21.40
2023-02-04T04:37:24.460Z,16.77
2023-02-04T04:39:51.235Z,19.17
2023-02-04T04:42:18.025Z,28.90
2023-02-04T04:44:44.841Z,23.13
2023-02-04T04:47:11.710Z,25.77
2023-02-04T04:49:38.563Z,21.83
2023-02-04T04:52:05.472Z,21.63
2023-02-04T04:54:32.393Z,21.97
2023-02-04T04:56:59.163Z,29.70
2023-02-04T04:59:25.865Z,26.30
2023-02-04T05:01:52.687Z,33.33
2023-02-04T05:04:19.497Z,27.10
2023-02-04T05:06:46.345Z,20.87
2023-02-04T05:09:15.185Z,30.57
2023-02-04T05:11:41.963Z,34.17
2023-02-04T05:14:11.305Z,31.43
2023-02-04T05:16:38.328Z,27.80
2023-02-04T05:19:05.115Z,32.33
2023-02-04T05:21:31.901Z,29.13
2023-02-04T05:23:58.654Z,20.87
2023-02-04T05:26:30.829Z,29.63
2023-02-04T05:29:00.469Z,29.10
2023-02-04T05:31:30.830Z,25.03
2023-02-04T05:33:58.028Z,30.07
2023-02-04T05:36:25.125Z,28.67
2023-02-04T05:38:51.844Z,27.83
2023-02-04T05:41:18.530Z,26.63
2023-02-04T05:43:45.403Z,27.27
2023-02-04T05:46:12.271Z,28.53
2023-02-04T05:48:40.204Z,31.73
2023-02-04T05:51:07.203Z,32.90
2023-02-04T05:53:33.947Z,31.27
2023-02-04T05:56:00.704Z,35.70
2023-02-04T05:58:33.346Z,38.27
2023-02-04T06:01:01.635Z,37.10
2023-02-04T06:03:29.576Z,36.53
2023-02-04T06:05:56.879Z,41.67
2023-02-04T06:08:23.711Z,33.37
2023-02-04T06:10:50.546Z,35.17
2023-02-04T06:13:17.405Z,48.67
2023-02-04T06:15:44.330Z,43.40
2023-02-04T06:18:11.203Z,38.80
2023-02-04T06:20:38.043Z,47.93
2023-02-04T06:23:04.777Z,45.13
2023-02-04T06:25:31.645Z,35.73
2023-02-04T06:27:58.649Z,47.07
2023-02-04T06:30:25.361Z,30.47
2023-02-04T06:32:52.110Z,47.23
2023-02-04T06:35:18.991Z,45.60
2023-02-04T06:37:45.855Z,35.90
2023-02-04T06:40:13.002Z,44.00
2023-02-04T06:42:39.795Z,40.67
2023-02-04T06:45:07.168Z,38.30
2023-02-04T06:47:33.937Z,38.27
2023-02-04T06:50:00.790Z,38.60
2023-02-04T06:52:27.611Z,39.77
2023-02-04T06:54:59.996Z,40.60
2023-02-04T06:57:26.769Z,39.57
2023-02-04T06:59:56.553Z,34.43
2023-02-04T07:02:26.375Z,32.27
2023-02-04T07:04:53.199Z,28.50
2023-02-04T07:07:22.754Z,34.47
2023-02-04T07:09:49.757Z,30.20
2023-02-04T07:12:16.880Z,35.07
2023-02-04T07:14:43.656Z,31.20
2023-02-04T07:17:11.772Z,29.80
2023-02-04T07:19:38.972Z,31.10
2023-02-04T07:22:05.897Z,32.57
2023-02-04T07:24:35.405Z,34.23
2023-02-04T07:27:02.723Z,29.30
2023-02-04T07:29:29.582Z,36.13
2023-02-04T07:31:56.435Z,30.27
2023-02-04T07:34:26.173Z,28.23
2023-02-04T07:36:53.021Z,29.77
2023-02-04T07:39:19.928Z,28.47
2023-02-04T07:41:46.687Z,31.73
2023-02-04T07:44:13.401Z,27.97
2023-02-04T07:46:40.309Z,34.27
2023-02-04T07:49:07.252Z,39.97
2023-02-04T07:51:35.138Z,31.13
2023-02-04T07:54:04.899Z,31.40
2023-02-04T07:56:31.730Z,30.27
2023-02-04T07:59:01.541Z,32.77
2023-02-04T08:01:28.261Z,30.80
2023-02-04T08:03:55.040Z,33.53
2023-02-04T08:06:24.598Z,33.17
2023-02-04T08:08:51.276Z,31.30
2023-02-04T08:11:18.170Z,30.13
2023-02-04T08:13:44.882Z,32.80
2023-02-04T08:16:14.640Z,32.97
2023-02-04T08:18:41.742Z,29.37
2023-02-04T08:21:08.516Z,31.17
2023-02-04T08:23:35.485Z,32.60
2023-02-04T08:26:11.581Z,35.17
2023-02-04T08:28:38.629Z,38.23
2023-02-04T08:31:09.896Z,37.03
2023-02-04T08:33:36.690Z,30.50
2023-02-04T08:36:03.573Z,38.20
2023-02-04T08:38:32.668Z,35.70
2023-02-04T08:41:00.007Z,34.87
2023-02-04T08:43:27.128Z,40.67
2023-02-04T08:45:53.904Z,33.77
2023-02-04T08:48:20.649Z,32.97
2023-02-04T08:50:47.411Z,35.70
2023-02-04T08:53:14.192Z,35.00
2023-02-04T08:55:40.966Z,34.43
2023-02-04T08:58:07.807Z,32.37
2023-02-04T09:00:34.870Z,29.50
2023-02-04T09:03:02.139Z,41.57
2023-02-04T09:05:28.896Z,36.23
2023-02-04T09:07:55.714Z,34.80
2023-02-04T09:10:22.466Z,37.90
2023-02-04T09:12:49.394Z,34.43
2023-02-04T09:15:16.159Z,32.90
2023-02-04T09:18:15.032Z,37.60
2023-02-04T09:20:41.823Z,31.77
2023-02-04T09:23:10.560Z,33.07
2023-02-04T09:25:37.636Z,33.03
2023-02-04T09:28:04.754Z,35.60
2023-02-04T09:30:39.007Z,31.07
2023-02-04T09:33:05.969Z,36.03
2023-02-04T09:35:32.733Z,38.87
2023-02-04T09:37:59.484Z,30.77
2023-02-04T09:40:30.903Z,28.40
2023-02-04T09:42:58.998Z,31.33
2023-02-04T09:45:32.805Z,28.93
2023-02-04T09:48:04.120Z,32.93
2023-02-04T09:50:32.545Z,30.23
2023-02-04T09:53:06.969Z,32.30
2023-02-04T09:55:38.167Z,43.17
2023-02-04T09:58:19.549Z,30.90
2023-02-04T10:00:48.263Z,30.97
2023-02-04T10:03:26.289Z,30.87
2023-02-04T10:05:56.030Z,31.80
2023-02-04T10:08:29.440Z,29.40
2023-02-04T10:10:58.086Z,33.20
2023-02-04T10:13:32.680Z,28.43
2023-02-04T10:15:59.976Z,29.53
2023-02-04T10:18:33.505Z,25.27
2023-02-04T10:21:33.380Z,28.33
2023-02-04T10:24:02.733Z,22.67
2023-02-04T10:26:31.897Z,31.83
2023-02-04T10:29:04.023Z,29.23
2023-02-04T10:31:46.193Z,25.80
2023-02-04T10:34:21.216Z,29.77
2023-02-04T10:36:52.316Z,27.90
2023-02-04T10:39:20.179Z,29.83
2023-02-04T10:41:58.676Z,20.80
2023-02-04T10:44:36.174Z,23.17
2023-02-04T10:47:06.004Z,31.10
2023-02-04T10:49:33.322Z,19.27
2023-02-04T10:52:02.449Z,26.13
2023-02-04T10:54:37.523Z,20.20
2023-02-04T10:57:29.273Z,27.47
2023-02-04T11:00:02.042Z,28.57
2023-02-04T11:02:40.571Z,33.93
2023-02-04T11:05:17.256Z,21.37
2023-02-04T11:07:45.602Z,29.47
2023-02-04T11:10:18.516Z,24.23
2023-02-04T11:13:02.097Z,23.70
2023-02-04T11:16:11.738Z,26.83
2023-02-04T11:18:49.040Z,24.07
2023-02-04T11:21:26.537Z,24.13
2023-02-04T11:24:11.615Z,28.33
2023-02-04T11:26:42.624Z,24.13
2023-02-04T11:29:38.727Z,22.90
2023-02-04T11:32:24.461Z,17.40
2023-02-04T11:34:52.984Z,27.80
2023-02-04T11:37:34.721Z,27.93
2023-02-04T11:40:02.171Z,30.50
2023-02-04T11:42:42.997Z,25.93
2023-02-04T11:45:26.798Z,22.10
2023-02-04T11:47:54.211Z,24.57
2023-02-04T11:50:31.468Z,20.73
2023-02-04T11:53:02.409Z,30.50
2023-02-04T11:55:31.645Z,18.03
2023-02-04T11:58:01.854Z,23.80
2023-02-04T12:00:33.199Z,21.40
2023-02-04T12:03:11.927Z,20.30
2023-02-04T12:05:41.918Z,24.53
2023-02-04T12:08:33.100Z,26.40
2023-02-04T12:11:15.748Z,20.47
2023-02-04T12:13:49.678Z,22.80
2023-02-04T12:16:16.807Z,25.10
2023-02-04T12:18:43.568Z,26.27
2023-02-04T12:21:10.611Z,23.90
2023-02-04T12:23:37.550Z,17.73
2023-02-04T12:26:04.595Z,15.53
2023-02-04T12:28:31.491Z,20.57
2023-02-04T12:30:58.363Z,19.53
2023-02-04T12:33:25.362Z,17.70
2023-02-04T12:35:52.482Z,18.57
2023-02-04T12:38:20.662Z,19.00
2023-02-04T12:40:47.897Z,22.63
2023-02-04T12:43:14.765Z,20.60
2023-02-04T12:45:45.788Z,20.00
2023-02-04T12:48:14.051Z,22.80
2023-02-04T12:50:43.856Z,19.73
2023-02-04T12:53:10.740Z,15.97
2023-02-04T12:55:37.760Z,15.40
2023-02-04T12:58:04.993Z,17.70
2023-02-04T13:00:31.978Z,22.67
2023-02-04T13:02:59.220Z,18.40
2023-02-04T13:05:26.839Z,21.50
2023-02-04T13:07:54.170Z,19.07
2023-02-04T13:10:21.920Z,21.97
2023-02-04T13:12:48.964Z,19.63
2023-02-04T13:15:15.985Z,19.07
2023-02-04T13:17:43.250Z,22.40
2023-02-04T13:20:11.174Z,21.80
2023-02-04T13:22:37.999Z,18.47
2023-02-04T13:25:05.580Z,20.40
2023-02-04T13:27:32.463Z,17.40
2023-02-04T13:29:59.324Z,23.20
2023-02-04T13:32:26.266Z,18.27
2023-02-04T13:34:53.254Z,15.93
2023-02-04T13:37:20.031Z,24.03
2023-02-04T13:39:46.760Z,21.50
2023-02-04T13:42:13.594Z,21.73
2023-02-04T13:44:40.355Z,16.43
2023-02-04T13:47:07.162Z,14.70
2023-02-04T13:49:35.052Z,16.30
2023-02-04T13:52:01.775Z,12.67
2023-02-04T13:54:28.502Z,21.23
2023-02-04T13:56:55.349Z,19.70
2023-02-04T13:59:22.017Z,17.53
2023-02-04T14:01:48.792Z,22.73
2023-02-04T14:04:15.693Z,22.97
2023-02-04T14:06:45.268Z,24.33
2023-02-04T14:09:12.871Z,22.90
2023-02-04T14:11:42.933Z,21.63
2023-02-04T14:14:09.678Z,15.80
2023-02-04T14:16:37.972Z,23.67
2023-02-04T14:19:05.687Z,23.07
2023-02-04T14:21:33.052Z,21.37
2023-02-04T14:24:00.875Z,19.90
2023-02-04T14:26:27.669Z,22.03
2023-02-04T14:28:54.455Z,16.03
2023-02-04T14:31:21.274Z,21.33
2023-02-04T14:33:50.117Z,19.33
2023-02-04T14:36:17.225Z,16.47
2023-02-04T14:38:43.918Z,18.20
2023-02-04T14:41:11.657Z,21.53
2023-02-04T14:43:38.409Z,18.70
2023-02-04T14:46:08.139Z,17.33
2023-02-04T14:48:35.518Z,16.23
2023-02-04T14:51:02.259Z,15.43
2023-02-04T14:53:30.544Z,20.30
2023-02-04T14:55:57.505Z,24.17
2023-02-04T14:58:26.282Z,14.70
2023-02-04T15:00:54.364Z,17.30
2023-02-04T15:03:21.298Z,14.00
2023-02-04T15:05:48.119Z,19.33
2023-02-04T15:08:14.864Z,11.80
2023-02-04T15:10:41.742Z,12.93
2023-02-04T15:13:11.699Z,14.07
2023-02-04T15:15:38.480Z,14.13
2023-02-04T15:18:05.440Z,16.67
2023-02-04T15:20:32.633Z,15.67
2023-02-04T15:23:00.778Z,20.23
2023-02-04T15:25:27.870Z,11.90
2023-02-04T15:27:54.703Z,18.60
2023-02-04T15:30:21.479Z,19.53
2023-02-04T15:32:48.269Z,16.13
2023-02-04T15:35:15.152Z,18.90
2023-02-04T15:37:44.777Z,18.03
2023-02-04T15:40:12.092Z,21.60
2023-02-04T15:42:38.860Z,24.03
2023-02-04T15:45:06.574Z,20.40
2023-02-04T15:47:33.593Z,26.13
2023-02-04T15:50:00.447Z,27.20
2023-02-04T15:52:29.256Z,21.87
2023-02-04T15:54:56.317Z,20.70
2023-02-04T15:57:23.198Z,25.50
2023-02-04T15:59:49.896Z,28.60
2023-02-04T16:02:19.353Z,18.87
2023-02-04T16:04:47.924Z,20.57
2023-02-04T16:07:14.665Z,18.13
2023-02-04T16:09:41.614Z,26.37
2023-02-04T16:12:08.419Z,24.17
2023-02-04T16:14:38.285Z,24.50
2023-02-04T16:17:07.005Z,29.50
2023-02-04T16:19:34.379Z,22.70
2023-02-04T16:22:05.993Z,23.67
2023-02-04T16:24:35.802Z,22.27
2023-02-04T16:27:02.815Z,22.00
2023-02-04T16:29:32.619Z,26.90
2023-02-04T16:31:59.521Z,25.93
2023-02-04T16:34:26.326Z,27.50
2023-02-04T16:36:53.003Z,25.97
2023-02-04T16:39:19.783Z,22.43
2023-02-04T16:41:46.500Z,21.57
2023-02-04T16:44:15.984Z,22.77
2023-02-04T16:46:42.885Z,21.70
2023-02-04T16:49:09.906Z,17.03
2023-02-04T16:51:36.834Z,21.30
2023-02-04T16:54:03.609Z,31.53
2023-02-04T16:56:35.266Z,23.67
2023-02-04T16:59:03.237Z,25.80
2023-02-04T17:01:30.402Z,24.30
2023-02-04T17:03:59.961Z,21.93
2023-02-04T17:06:27.946Z,27.83
2023-02-04T17:08:55.090Z,21.83
2023-02-04T17:11:31.858Z,22.33
2023-02-04T17:14:01.688Z,20.83
2023-02-04T17:16:29.966Z,25.47
2023-02-04T17:18:56.841Z,17.37
2023-02-04T17:21:25.990Z,20.33
2023-02-04T17:23:53.177Z,19.83
2023-02-04T17:26:20.014Z,19.57
2023-02-04T17:28:47.221Z,21.87
2023-02-04T17:31:14.121Z,17.27
2023-02-04T17:33:41.084Z,19.50
2023-02-04T17:36:08.449Z,16.37
2023-02-04T17:38:35.290Z,20.47
2023-02-04T17:41:02.674Z,17.57
2023-02-04T17:43:29.565Z,18.87
2023-02-04T17:45:56.334Z,18.87
2023-02-04T17:48:23.118Z,16.27
2023-02-04T17:50:49.942Z,15.07
2023-02-04T17:53:16.641Z,18.23
2023-02-04T17:55:43.420Z,18.13
2023-02-04T17:58:19.687Z,12.50
2023-02-04T18:00:48.063Z,18.93
2023-02-04T18:03:18.525Z,12.80
2023-02-04T18:05:51.650Z,22.57
2023-02-04T18:08:24.478Z,17.57
2023-02-04T18:10:53.489Z,16.57
2023-02-04T18:13:40.457Z,16.90
2023-02-04T18:16:19.534Z,17.37
2023-02-04T18:18:46.259Z,18.43
2023-02-04T18:21:28.849Z,20.93
2023-02-04T18:24:51.082Z,20.53
2023-02-04T18:27:24.685Z,17.90
2023-02-04T18:29:59.156Z,19.57
2023-02-04T18:32:40.115Z,15.63
2023-02-04T18:35:25.363Z,18.77
2023-02-04T18:37:53.163Z,13.00
2023-02-04T18:40:28.121Z,22.10
2023-02-04T18:43:10.059Z,23.17
2023-02-04T18:45:37.219Z,20.03
2023-02-04T18:48:16.376Z,24.73
2023-02-04T18:50:44.431Z,22.40
2023-02-04T18:53:11.091Z,19.13
2023-02-04T18:55:43.551Z,16.13
2023-02-04T18:58:34.067Z,22.30
2023-02-04T19:01:27.617Z,28.50
2023-02-04T19:04:17.667Z,24.80
2023-02-04T19:06:46.495Z,18.20
2023-02-04T19:09:13.529Z,25.77
2023-02-04T19:11:48.880Z,23.93
2023-02-04T19:14:43.792Z,22.63
2023-02-04T19:17:26.837Z,17.00
2023-02-04T19:20:00.569Z,24.73
2023-02-04T19:22:58.061Z,30.13
2023-02-04T19:25:37.902Z,27.30
2023-02-04T19:28:30.037Z,17.90
2023-02-04T19:31:01.379Z,20.20
2023-02-04T19:33:43.568Z,24.10
2023-02-04T19:36:30.630Z,29.90
2023-02-04T19:39:19.873Z,22.07
2023-02-04T19:41:52.116Z,28.93
2023-02-04T19:44:33.757Z,23.60
2023-02-04T19:47:25.915Z,26.67
2023-02-04T19:50:02.286Z,27.50
2023-02-04T19:52:37.412Z,21.67
2023-02-04T19:55:25.069Z,21.70
2023-02-04T19:57:59.292Z,25.63
2023-02-04T20:00:34.706Z,26.23
2023-02-04T20:03:11.963Z,23.17
2023-02-04T20:05:38.729Z,28.10
2023-02-04T20:08:40.134Z,26.70
2023-02-04T20:11:33.781Z,31.70
2023-02-04T20:14:15.848Z,26.03
2023-02-04T20:17:16.909Z,20.87
2023-02-04T20:19:44.647Z,27.40
2023-02-04T20:22:26.283Z,23.07
2023-02-04T20:24:59.204Z,26.00
2023-02-04T20:27:36.616Z,21.53
2023-02-04T20:30:11.637Z,30.00
2023-02-04T20:32:56.084Z,24.47
2023-02-04T20:35:22.757Z,25.23
2023-02-04T20:37:59.501Z,24.67
2023-02-04T20:40:35.597Z,25.80
2023-02-04T20:43:06.292Z,23.30
2023-02-04T20:45:37.597Z,24.53
2023-02-04T20:48:16.256Z,31.93
2023-02-04T20:50:58.448Z,28.20
2023-02-04T20:53:36.784Z,30.97
2023-02-04T20:56:23.606Z,23.63
2023-02-04T20:58:53.800Z,27.40
2023-02-04T21:01:33.800Z,25.13
2023-02-04T21:04:18.546Z,30.80
2023-02-04T21:06:48.425Z,27.23
2023-02-04T21:09:43.703Z,29.13
2023-02-04T21:12:10.759Z,24.60
2023-02-04T21:14:37.668Z,26.83
2023-02-04T21:17:07.520Z,25.90
2023-02-04T21:19:35.325Z,25.60
2023-02-04T21:22:02.482Z,24.50
2023-02-04T21:24:31.875Z,25.83
2023-02-04T21:26:58.807Z,27.70
2023-02-04T21:29:26.105Z,28.00
2023-02-04T21:31:54.806Z,24.90
2023-02-04T21:34:21.676Z,25.43
2023-02-04T21:36:48.541Z,23.33
2023-02-04T21:39:15.632Z,30.37
2023-02-04T21:41:42.549Z,23.37
2023-02-04T21:44:09.318Z,25.90
2023-02-04T21:46:36.185Z,32.30
2023-02-04T21:49:05.975Z,24.87
2023-02-04T21:51:32.748Z,29.17
2023-02-04T21:54:00.824Z,22.67
2023-02-04T21:56:27.691Z,34.97
2023-02-04T21:58:54.387Z,31.43
2023-02-04T22:01:23.498Z,30.53
2023-02-04T22:03:50.271Z,32.73
2023-02-04T22:06:17.175Z,26.77
2023-02-04T22:08:43.921Z,27.07
2023-02-04T22:11:10.784Z,22.53
2023-02-04T22:13:37.520Z,37.73
2023-02-04T22:16:04.378Z,27.97
2023-02-04T22:18:37.057Z,34.50
2023-02-04T22:21:03.878Z,30.20
2023-02-04T22:23:30.602Z,26.83
2023-02-04T22:25:57.429Z,35.87
2023-02-04T22:28:24.232Z,27.63
2023-02-04T22:30:53.283Z,31.23
2023-02-04T22:33:20.865Z,37.77
2023-02-04T22:35:48.531Z,33.20
2023-02-04T22:38:15.473Z,40.30
2023-02-04T22:40:42.505Z,40.50
2023-02-04T22:43:09.261Z,39.70
2023-02-04T22:45:36.127Z,43.30
2023-02-04T22:48:03.060Z,43.47
2023-02-04T22:50:29.863Z,44.40
2023-02-04T22:52:56.648Z,45.77
2023-02-04T22:55:23.464Z,50.83
2023-02-04T22:57:50.141Z,50.70
2023-02-04T23:00:17.656Z,43.07
2023-02-04T23:02:44.479Z,49.37
2023-02-04T23:05:11.203Z,53.60
2023-02-04T23:07:40.640Z,50.37
2023-02-04T23:10:08.015Z,47.90
2023-02-04T23:12:34.753Z,53.40
2023-02-04T23:15:01.562Z,54.37
2023-02-04T23:17:31.021Z,52.17
2023-02-04T23:19:57.804Z,50.80
2023-02-04T23:22:24.934Z,51.77
2023-02-04T23:24:51.765Z,56.00
2023-02-04T23:27:21.690Z,57.30
2023-02-04T23:29:48.479Z,59.53
2023-02-04T23:32:15.434Z,54.47
2023-02-04T23:34:42.287Z,61.13
2023-02-04T23:37:09.137Z,60.70
2023-02-04T23:39:38.926Z,56.60
2023-02-04T23:42:05.754Z,54.87
2023-02-04T23:44:32.624Z,56.37
2023-02-04T23:46:59.434Z,53.13
2023-02-04T23:49:26.104Z,57.17
2023-02-04T23:51:52.898Z,59.10
2023-02-04T23:54:19.715Z,53.93
2023-02-04T23:56:46.601Z,55.30
2023-02-04T23:59:13.303Z,61.27
